Storm Events Database

Event Details

Event Thunderstorm Wind
Magnitude 50 kts.
State TENNESSEE
County/Area OBION
WFO MEG
Report Source Fire Department/Rescue
NCDC Data Source CSV
Begin Date 2011-04-25 22:20:00.0 CST-6
Begin Location 0N OBION
Begin Lat/Lon 36.27/-89.2
End Date 2011-04-25 22:25:00.0 CST-6
End Location 2SE OBION
End Lat/Lon 36.25/-89.18
Deaths Direct/Indirect 0/0 (fatality details below, when available...)
Injuries Direct/Indirect 0/0
Property Damage
Crop Damage 0.00K
Episode Narrative A stationary front remained draped across Southern Missouri into Western Kentucky from April 24th, 2011 into April 25th, 2011. A very warm and unstable atmosphere was in place across the Mid-South ahead of the front. A low pressure system developed along the front and interacted with the unstable environment which helped produce several rounds of severe storms into the evening of April 26th, 2011. As a result of the severe storms, the front sank south during the early morning hours of April 27th, 2011 as a secondary low pressure system developed along the front. As a result, another round of severe storms fired during the afternoon hours ahead of the low pressure center. Additional severe storms fired along the trailing cold front. Tornadoes, large hail, damaging winds, flash flooding occurred as a result of the severe storms. Heavy rain from the continuous rounds of severe weather eventually resulted in record river flooding on a number of rivers in the region.
Event Narrative Straight line winds damaged a municipal building and ripped off the roof. Numerous trees and power lines were knocked down. A mobile home was destroyed. A few power poles were snapped.


     ‚Äč



All events for this episode:

Location County/Zone St. Date Time T.Z. Type Mag Dth Inj PrD CrD
Totals: 0 5 6.296M 0.00K
SHELBY CENTER SHELBY CO. TN 04/25/2011 11:40 CST-6 Thunderstorm Wind 50 kts. EG 0 0 0.00K 0.00K
JOHNSONS GROVE CROCKETT CO. TN 04/25/2011 12:35 CST-6 Thunderstorm Wind 50 kts. EG 0 0 0.00K 0.00K
GERMANTOWN SHELBY CO. TN 04/25/2011 21:35 CST-6 Thunderstorm Wind 52 kts. EG 0 0 1.00K 0.00K
PISGAH SHELBY CO. TN 04/25/2011 21:45 CST-6 Hail 0.75 in. 0 0 0.00K 0.00K
RIPLEY LAUDERDALE CO. TN 04/25/2011 21:45 CST-6 Thunderstorm Wind 50 kts. EG 0 0 5.00K 0.00K
PIPERTON FAYETTE CO. TN 04/25/2011 21:55 CST-6 Thunderstorm Wind 50 kts. EG 0 0 1.00K 0.00K
DYERSBURG DYER CO. TN 04/25/2011 22:00 CST-6 Thunderstorm Wind 56 kts. EG 0 0 4.00K 0.00K
FREDONIA HAYWOOD CO. TN 04/25/2011 22:00 CST-6 Thunderstorm Wind 50 kts. EG 0 0 0.00K 0.00K
ADAIR MADISON CO. TN 04/25/2011 22:15 CST-6 Thunderstorm Wind 61 kts. EG 0 0 0.00K 0.00K
GADSDEN CROCKETT CO. TN 04/25/2011 22:15 CST-6 Thunderstorm Wind 54 kts. EG 0 0 3.00K 0.00K
OBION OBION CO. TN 04/25/2011 22:20 CST-6 Thunderstorm Wind 50 kts. EG 0 0 0.00K 0.00K
TRENTON GIBSON CO. TN 04/25/2011 22:24 CST-6 Thunderstorm Wind 50 kts. EG 0 0 0.00K 0.00K
SHARON WEAKLEY CO. TN 04/25/2011 22:40 CST-6 Thunderstorm Wind 50 kts. EG 0 2 1.000M 0.00K
MC LEMORESVILLE CARROLL CO. TN 04/25/2011 22:45 CST-6 Thunderstorm Wind 65 kts. EG 0 0 1.400M 0.00K
RUTHVILLE WEAKLEY CO. TN 04/25/2011 22:45 CST-6 Tornado EF1 0 0 50.00K 0.00K
BARGERTON HENDERSON CO. TN 04/25/2011 22:47 CST-6 Tornado EF0 0 0 15.00K 0.00K
HENRY HENRY CO. TN 04/25/2011 23:00 CST-6 Thunderstorm Wind 56 kts. EG 0 1 1.500M 0.00K
SHILOH CARROLL CO. TN 04/25/2011 23:00 CST-6 Tornado EF0 0 0 5.00K 0.00K
CAPLEVILLE SHELBY CO. TN 04/26/2011 16:35 CST-6 Hail 1.00 in. 0 0 0.00K 0.00K
BARTLETT SHELBY CO. TN 04/26/2011 17:00 CST-6 Hail 1.00 in. 0 0 0.00K 0.00K
ARLINGTON MUNI ARPT SHELBY CO. TN 04/26/2011 17:19 CST-6 Hail 1.75 in. 0 0 0.00K 0.00K
HICKORY WITHE FAYETTE CO. TN 04/26/2011 17:20 CST-6 Hail 0.88 in. 0 0 0.00K 0.00K
MILLINGTON SHELBY CO. TN 04/26/2011 17:24 CST-6 Hail 1.00 in. 0 0 0.00K 0.00K
TIPTON TIPTON CO. TN 04/26/2011 17:26 CST-6 Hail 1.50 in. 0 0 0.00K 0.00K
DRUMMONDS TIPTON CO. TN 04/26/2011 17:35 CST-6 Hail 1.50 in. 0 0 0.00K 0.00K
COLLIERVILLE SHELBY CO. TN 04/26/2011 18:40 CST-6 Thunderstorm Wind 50 kts. EG 0 0 0.00K 0.00K
ARLINGTON SHELBY CO. TN 04/26/2011 19:00 CST-6 Flash Flood 0 0 20.00K 0.00K
CLOVERPORT HARDEMAN CO. TN 04/26/2011 19:27 CST-6 Tornado EF0 0 0 15.00K 0.00K
JACKS CREEK CHESTER CO. TN 04/26/2011 19:54 CST-6 Tornado EF0 0 0 75.00K 0.00K
JACKS CREEK CHESTER CO. TN 04/26/2011 20:04 CST-6 Hail 1.00 in. 0 0 0.00K 0.00K
ATOKA TIPTON CO. TN 04/26/2011 20:15 CST-6 Hail 1.00 in. 0 0 0.00K 0.00K
REAGAN HENDERSON CO. TN 04/26/2011 20:15 CST-6 Hail 2.00 in. 0 0 0.00K 0.00K
PIPERTON FAYETTE CO. TN 04/27/2011 02:00 CST-6 Flood 0 0 250.00K 0.00K
SHELBY FARMS SHELBY CO. TN 04/27/2011 05:00 CST-6 Flood 0 0 150.00K 0.00K
MEMPHIS SHELBY CO. TN 04/27/2011 09:23 CST-6 Hail 1.75 in. 0 0 0.00K 0.00K
TAYLORS CROSSING HENDERSON CO. TN 04/27/2011 09:32 CST-6 Flash Flood 0 0 0.00K 0.00K
COOL SPGS GIBSON CO. TN 04/27/2011 10:25 CST-6 Flash Flood 0 0 0.00K 0.00K
MILLINGTON SHELBY CO. TN 04/27/2011 11:23 CST-6 Hail 0.75 in. 0 0 0.00K 0.00K
MASSEYVILLE CHESTER CO. TN 04/27/2011 12:06 CST-6 Flash Flood 0 0 0.00K 0.00K
WHITEVILLE HARDEMAN CO. TN 04/27/2011 12:40 CST-6 Flash Flood 0 0 2.00K 0.00K
COUNCE HARDIN CO. TN 04/27/2011 16:11 CST-6 Tornado EF2 0 2 1.800M 0.00K
Totals: 0 5 6.296M 0.00K